Time;durP1;ratioP1;P1;durP2;ratioP2;P2;SDS_P1;SDS_P2;PMS_P1;PMS_P2;Temp;Humidity;BMP_temperature;BMP_pressure;BME280_temperature;BME280_humidity;BME280_pressure;Samples;Min_cycle;Max_cycle;Signal;HPM_P1;HPM_P2
2022/07/01 00:00:06;;;;;;;2.05;0.65;;;17.90;99.90;;;;;;4146434;28;20060;-49
2022/07/01 00:02:27;;;;;;;0.93;0.60;;;17.80;99.90;;;;;;4146566;28;20128;-50
2022/07/01 00:04:48;;;;;;;4.32;0.70;;;17.80;99.90;;;;;;4146368;28;20061;-47
2022/07/01 00:07:11;;;;;;;0.50;0.50;;;17.90;99.90;;;;;;4148592;28;20057;-48
2022/07/01 00:09:32;;;;;;;0.88;0.70;;;18.00;99.90;;;;;;4161191;28;20168;-47
2022/07/01 00:11:53;;;;;;;0.55;0.55;;;18.10;99.90;;;;;;4156564;28;20103;-50
2022/07/01 00:14:14;;;;;;;0.55;0.55;;;18.00;99.70;;;;;;4148931;28;20115;-50
2022/07/01 00:16:36;;;;;;;0.50;0.50;;;18.00;99.70;;;;;;4146507;28;20125;-49
2022/07/01 00:18:56;;;;;;;0.50;0.50;;;18.00;97.90;;;;;;4146192;28;20138;-49
2022/07/01 00:21:17;;;;;;;0.50;0.50;;;18.10;98.00;;;;;;4146588;28;20441;-47
2022/07/01 00:23:38;;;;;;;4.80;0.73;;;18.00;97.80;;;;;;4146131;28;20125;-49
2022/07/01 00:25:59;;;;;;;0.50;0.50;;;18.00;97.70;;;;;;4146045;28;20048;-48
2022/07/01 00:28:20;;;;;;;0.60;0.60;;;18.00;97.80;;;;;;4146293;28;20057;-49
2022/07/01 00:30:41;;;;;;;0.60;0.60;;;17.80;99.90;;;;;;4146167;28;20129;-47
2022/07/01 00:33:02;;;;;;;0.60;0.60;;;17.70;99.90;;;;;;4145931;28;20049;-47
2022/07/01 00:35:23;;;;;;;0.57;0.57;;;17.70;99.90;;;;;;4146067;28;20080;-47
2022/07/01 00:37:44;;;;;;;1.33;1.23;;;17.80;99.90;;;;;;4146307;28;20049;-47
2022/07/01 00:40:06;;;;;;;0.60;0.60;;;17.80;98.90;;;;;;4146094;28;20053;-50
2022/07/01 00:42:27;;;;;;;0.95;0.65;;;17.70;98.70;;;;;;4146116;28;20057;-48
2022/07/01 00:44:47;;;;;;;0.75;0.60;;;17.60;99.90;;;;;;4146139;28;21468;-48
2022/07/01 00:47:11;;;;;;;0.80;0.60;;;17.50;99.90;;;;;;4146134;28;20390;-48
2022/07/01 00:49:32;;;;;;;2.75;0.80;;;17.50;99.90;;;;;;4149655;28;20052;-48
2022/07/01 00:51:53;;;;;;;6.30;0.60;;;17.20;99.90;;;;;;4159147;28;20571;-46
2022/07/01 00:54:14;;;;;;;0.60;0.60;;;17.20;99.90;;;;;;4160539;28;20335;-48
2022/07/01 00:56:35;;;;;;;0.60;0.60;;;17.20;99.90;;;;;;4145914;28;20079;-50
2022/07/01 00:58:56;;;;;;;0.60;0.60;;;17.00;99.90;;;;;;4144294;28;20073;-47
2022/07/01 01:01:17;;;;;;;0.60;0.60;;;17.00;99.90;;;;;;4145972;28;20572;-50
2022/07/01 01:03:38;;;;;;;2.38;0.60;;;17.10;99.90;;;;;;4146017;28;20048;-48
2022/07/01 01:05:59;;;;;;;0.60;0.60;;;17.10;99.90;;;;;;4145961;28;20120;-50
2022/07/01 01:08:19;;;;;;;1.83;0.60;;;17.20;99.90;;;;;;4157242;28;20401;-49
2022/07/01 01:10:40;;;;;;;2.45;0.73;;;17.10;99.90;;;;;;4156795;28;20112;-49
2022/07/01 01:13:02;;;;;;;0.82;0.68;;;17.00;99.90;;;;;;4163394;28;20075;-48
2022/07/01 01:15:23;;;;;;;1.23;0.70;;;16.80;99.90;;;;;;4147873;28;20108;-50
2022/07/01 01:17:43;;;;;;;2.47;0.70;;;16.60;99.90;;;;;;4159832;28;20049;-50
2022/07/01 01:20:04;;;;;;;0.73;0.70;;;16.70;99.90;;;;;;4160708;28;20060;-49
2022/07/01 01:22:25;;;;;;;2.58;0.70;;;16.70;99.90;;;;;;4148846;28;20060;-46
2022/07/01 01:24:49;;;;;;;1.27;0.70;;;16.60;99.90;;;;;;4148976;28;20057;-48
2022/07/01 01:27:10;;;;;;;0.70;0.70;;;16.70;99.90;;;;;;4148486;28;20524;-47
2022/07/01 01:29:32;;;;;;;3.60;0.70;;;16.70;99.90;;;;;;4148583;28;20129;-46
2022/07/01 01:31:52;;;;;;;0.70;0.70;;;16.50;99.90;;;;;;4148801;28;20046;-49
2022/07/01 01:34:13;;;;;;;0.70;0.70;;;16.40;99.90;;;;;;4148585;28;20564;-50
2022/07/01 01:36:34;;;;;;;1.10;1.00;;;16.40;99.90;;;;;;4148467;28;20088;-49
2022/07/01 01:39:10;;;;;;;0.95;0.95;;;16.10;99.90;;;;;;4148464;28;20099;-50
2022/07/01 01:41:31;;;;;;;1.77;0.80;;;16.00;99.90;;;;;;4148816;28;20048;-49
2022/07/01 01:43:51;;;;;;;1.25;1.15;;;15.90;99.90;;;;;;4157376;28;20134;-48
2022/07/01 01:46:12;;;;;;;0.82;0.80;;;16.10;99.90;;;;;;4155496;28;20081;-48
2022/07/01 01:48:32;;;;;;;2.78;0.80;;;16.00;99.90;;;;;;4154782;28;20091;-48
2022/07/01 01:50:53;;;;;;;1.13;0.80;;;16.00;99.90;;;;;;4163202;28;20133;-49
2022/07/01 01:53:14;;;;;;;0.70;0.70;;;15.90;99.90;;;;;;4149846;28;20551;-47
2022/07/01 01:55:35;;;;;;;0.70;0.70;;;15.80;99.90;;;;;;4148341;28;20056;-48
2022/07/01 01:57:56;;;;;;;0.68;0.68;;;16.00;99.90;;;;;;4148183;28;20052;-50
2022/07/01 02:00:17;;;;;;;0.82;0.80;;;15.90;99.90;;;;;;4148300;28;20104;-49
2022/07/01 02:02:37;;;;;;;1.98;0.65;;;15.90;99.90;;;;;;4148396;28;20120;-49
2022/07/01 02:04:58;;;;;;;0.80;0.80;;;16.00;99.90;;;;;;4147883;28;20067;-49
2022/07/01 02:07:19;;;;;;;1.35;0.80;;;16.10;99.90;;;;;;4151965;28;20048;-50
2022/07/01 02:09:39;;;;;;;0.70;0.70;;;16.10;99.90;;;;;;4148416;28;20120;-49
2022/07/01 02:12:00;;;;;;;0.70;0.70;;;16.00;99.90;;;;;;4159238;28;20161;-50
2022/07/01 02:14:20;;;;;;;1.60;0.70;;;15.90;99.90;;;;;;4159666;28;20084;-50
2022/07/01 02:16:41;;;;;;;0.70;0.70;;;15.70;99.90;;;;;;4148047;28;20088;-49
2022/07/01 02:19:03;;;;;;;0.80;0.80;;;15.60;99.90;;;;;;4147750;28;20057;-49
2022/07/01 02:21:23;;;;;;;0.70;0.70;;;15.60;99.90;;;;;;4147970;28;20108;-49
2022/07/01 02:23:44;;;;;;;2.78;0.80;;;15.60;99.90;;;;;;4147420;28;20049;-50
2022/07/01 02:26:05;;;;;;;0.95;0.80;;;15.40;99.90;;;;;;4147810;28;20083;-49
2022/07/01 02:28:26;;;;;;;1.52;0.80;;;15.30;99.90;;;;;;4147686;28;20112;-49
2022/07/01 02:30:47;;;;;;;1.13;1.05;;;15.40;99.90;;;;;;4147452;28;20104;-51
2022/07/01 02:33:08;;;;;;;0.90;0.90;;;15.20;99.90;;;;;;4147492;28;20061;-50
2022/07/01 02:35:29;;;;;;;3.80;1.00;;;15.10;99.90;;;;;;4147748;28;20060;-51
2022/07/01 02:37:50;;;;;;;1.05;0.90;;;15.10;99.90;;;;;;4147617;28;20072;-49
2022/07/01 02:40:13;;;;;;;1.77;1.13;;;15.20;99.90;;;;;;4147552;28;20061;-49
2022/07/01 02:42:37;;;;;;;;;;;14.90;99.90;;;;;;4148087;28;20799;-47
2022/07/01 02:44:57;;;;;;;1.85;1.70;;;14.90;99.90;;;;;;4157512;28;19971;-51
2022/07/01 02:47:18;;;;;;;0.85;0.80;;;15.00;99.90;;;;;;4150553;28;20088;-51
2022/07/01 02:49:39;;;;;;;1.52;0.90;;;15.10;99.90;;;;;;4152006;28;20053;-49
2022/07/01 02:51:59;;;;;;;0.90;0.90;;;15.00;99.90;;;;;;4163770;28;20048;-48
2022/07/01 02:54:20;;;;;;;0.70;0.70;;;14.80;99.90;;;;;;4147204;28;20108;-48
2022/07/01 02:56:41;;;;;;;0.80;0.80;;;14.70;99.90;;;;;;4147303;28;20134;-49
2022/07/01 02:59:02;;;;;;;1.58;0.75;;;14.70;99.90;;;;;;4147259;28;20088;-49
2022/07/01 03:01:24;;;;;;;0.80;0.80;;;14.70;99.90;;;;;;4147380;28;20089;-49
2022/07/01 03:03:45;;;;;;;0.90;0.90;;;14.70;99.90;;;;;;4147273;28;20044;-50
2022/07/01 03:06:06;;;;;;;1.80;0.90;;;14.50;99.90;;;;;;4147356;28;20045;-47
2022/07/01 03:08:26;;;;;;;2.08;0.90;;;14.40;99.90;;;;;;4155921;28;20052;-47
2022/07/01 03:10:47;;;;;;;2.15;0.80;;;14.40;99.90;;;;;;4148074;28;20057;-50
2022/07/01 03:13:07;;;;;;;2.38;0.85;;;14.40;99.90;;;;;;4147427;28;20052;-51
2022/07/01 03:15:28;;;;;;;0.95;0.95;;;14.50;99.90;;;;;;4147145;28;20044;-48
2022/07/01 03:17:49;;;;;;;0.80;0.80;;;14.50;99.90;;;;;;4153342;28;20409;-48
2022/07/01 03:20:15;;;;;;;0.73;0.73;;;14.50;99.90;;;;;;4146839;28;20104;-47
2022/07/01 03:22:36;;;;;;;0.85;0.85;;;14.60;99.90;;;;;;4146932;28;20065;-47
2022/07/01 03:24:57;;;;;;;0.95;0.70;;;14.60;99.90;;;;;;4146728;28;20115;-51
2022/07/01 03:27:19;;;;;;;1.20;0.80;;;14.60;99.90;;;;;;4147031;28;20057;-51
2022/07/01 03:29:41;;;;;;;0.80;0.80;;;14.60;99.90;;;;;;4146780;28;20052;-49
2022/07/01 03:32:02;;;;;;;1.98;0.95;;;14.40;99.90;;;;;;4146933;28;20053;-50
2022/07/01 03:34:23;;;;;;;0.70;0.70;;;14.50;99.90;;;;;;4146665;28;20421;-47
2022/07/01 03:36:44;;;;;;;0.90;0.90;;;14.50;99.90;;;;;;4146389;28;20456;-50
2022/07/01 03:39:05;;;;;;;3.05;0.80;;;14.40;99.90;;;;;;4146878;28;20103;-49
2022/07/01 03:41:26;;;;;;;2.90;0.80;;;14.50;99.90;;;;;;4158528;28;20068;-51
2022/07/01 03:43:47;;;;;;;0.80;0.80;;;14.60;99.90;;;;;;4157278;28;20065;-47
2022/07/01 03:46:08;;;;;;;0.70;0.70;;;14.70;99.90;;;;;;4146772;28;20438;-49
2022/07/01 03:48:29;;;;;;;0.77;0.77;;;14.80;99.90;;;;;;4146747;28;20414;-49
2022/07/01 03:50:50;;;;;;;1.52;0.80;;;14.70;99.90;;;;;;4149439;28;20061;-48
2022/07/01 03:55:51;;;;;;;1.67;0.90;;;14.80;99.90;;;;;;4146693;28;20049;-50
2022/07/01 03:58:13;;;;;;;1.40;0.80;;;14.80;99.90;;;;;;4163102;28;20091;-46
2022/07/01 04:00:35;;;;;;;0.70;0.70;;;14.70;99.90;;;;;;4150466;28;20133;-50
2022/07/01 04:02:56;;;;;;;1.13;0.80;;;14.40;99.90;;;;;;4146656;28;20092;-48
2022/07/01 04:05:17;;;;;;;0.80;0.80;;;14.20;99.90;;;;;;4146708;28;20291;-50
2022/07/01 04:07:37;;;;;;;0.80;0.80;;;14.00;99.90;;;;;;4152645;28;20111;-50
2022/07/01 04:09:58;;;;;;;0.90;0.90;;;13.90;99.90;;;;;;4151415;28;20563;-51
2022/07/01 04:12:19;;;;;;;1.95;0.80;;;14.00;99.90;;;;;;4155700;28;20057;-48
2022/07/01 04:14:40;;;;;;;0.77;0.77;;;14.00;99.90;;;;;;4146441;28;20520;-50
2022/07/01 04:17:02;;;;;;;0.70;0.70;;;13.90;99.90;;;;;;4148086;28;20056;-50
2022/07/01 04:19:24;;;;;;;0.77;0.77;;;14.00;99.90;;;;;;4152527;28;20129;-48
2022/07/01 04:24:26;;;;;;;0.80;0.80;;;14.20;99.90;;;;;;4161456;28;20052;-49
2022/07/01 04:26:46;;;;;;;1.13;1.02;;;14.20;99.90;;;;;;4146168;28;20057;-49
2022/07/01 04:29:08;;;;;;;1.55;0.77;;;14.20;99.90;;;;;;4152562;28;20057;-50
2022/07/01 04:31:29;;;;;;;1.08;0.80;;;14.20;99.90;;;;;;4157984;28;20429;-48
2022/07/01 04:33:50;;;;;;;1.10;1.08;;;14.10;99.90;;;;;;4146384;28;20128;-50
2022/07/01 04:36:11;;;;;;;0.80;0.80;;;14.20;99.90;;;;;;4146154;28;20052;-50
2022/07/01 04:38:31;;;;;;;0.70;0.70;;;14.30;99.90;;;;;;4145957;28;20108;-48
2022/07/01 04:43:31;;;;;;;3.22;0.75;;;14.20;99.90;;;;;;4152493;28;20053;-49
2022/07/01 04:45:51;;;;;;;0.80;0.80;;;14.40;99.90;;;;;;4146160;28;20053;-49
2022/07/01 04:48:14;;;;;;;2.10;0.70;;;14.40;99.90;;;;;;4147524;28;20398;-50
2022/07/01 04:50:34;;;;;;;0.70;0.70;;;14.40;99.90;;;;;;4157359;28;20099;-50
2022/07/01 04:52:55;;;;;;;0.80;0.80;;;14.40;99.90;;;;;;4149257;28;20056;-47
2022/07/01 04:55:16;;;;;;;0.70;0.70;;;14.40;99.90;;;;;;4149298;28;20401;-50
2022/07/01 04:57:37;;;;;;;1.83;0.85;;;14.40;99.90;;;;;;4149243;28;20124;-49
2022/07/01 04:59:57;;;;;;;3.97;0.93;;;14.30;99.90;;;;;;4149123;28;20057;-51
2022/07/01 05:02:18;;;;;;;0.80;0.80;;;14.30;99.90;;;;;;4149191;28;20061;-47
2022/07/01 05:04:40;;;;;;;0.90;0.90;;;14.30;99.90;;;;;;4149171;28;20057;-49
2022/07/01 05:07:02;;;;;;;1.00;1.00;;;14.50;99.90;;;;;;4150227;28;20052;-50
2022/07/01 05:09:22;;;;;;;1.65;0.80;;;14.50;99.90;;;;;;4162711;28;20061;-49
2022/07/01 05:11:46;;;;;;;0.80;0.80;;;14.50;99.90;;;;;;4158229;28;20103;-48
2022/07/01 05:14:07;;;;;;;2.72;0.80;;;14.60;99.90;;;;;;4150878;28;20452;-48
2022/07/01 05:16:28;;;;;;;0.80;0.80;;;14.80;99.90;;;;;;4152164;28;20053;-45
2022/07/01 05:24:07;;;;;;;0.80;0.80;;;15.20;99.90;;;;;;4148945;28;20104;-47
2022/07/01 05:26:28;;;;;;;1.20;0.80;;;15.30;99.90;;;;;;4155883;28;20060;-48
2022/07/01 05:28:48;;;;;;;0.73;0.73;;;15.30;99.90;;;;;;4148786;28;20131;-48
2022/07/01 05:31:09;;;;;;;1.15;0.80;;;15.40;99.90;;;;;;4156328;28;20596;-48
2022/07/01 05:33:29;;;;;;;0.90;0.90;;;15.50;99.90;;;;;;4156711;28;20060;-46
2022/07/01 05:35:50;;;;;;;2.38;0.80;;;15.60;99.90;;;;;;4155993;28;20125;-47
2022/07/01 05:38:12;;;;;;;0.70;0.70;;;15.60;99.90;;;;;;4151528;28;20079;-46
2022/07/01 05:40:32;;;;;;;0.70;0.70;;;15.60;99.90;;;;;;4155649;28;20056;-49
2022/07/01 05:42:52;;;;;;;1.73;0.75;;;15.70;99.90;;;;;;4151323;28;20048;-46
2022/07/01 05:45:13;;;;;;;1.63;0.77;;;15.80;99.90;;;;;;4157255;28;20104;-46
2022/07/01 05:47:34;;;;;;;2.28;1.13;;;15.90;99.90;;;;;;4148318;28;20057;-46
2022/07/01 05:49:54;;;;;;;2.70;1.08;;;16.00;99.90;;;;;;4148557;28;20048;-48
2022/07/01 05:52:15;;;;;;;1.30;0.80;;;16.00;99.90;;;;;;4148130;28;20052;-47
2022/07/01 05:54:36;;;;;;;0.90;0.90;;;16.10;99.90;;;;;;4148221;28;20077;-49
2022/07/01 05:56:57;;;;;;;3.90;0.80;;;16.20;99.90;;;;;;4148378;28;20621;-47
2022/07/01 05:59:18;;;;;;;3.70;0.70;;;16.30;99.90;;;;;;4147946;28;20052;-47
2022/07/01 06:01:38;;;;;;;0.80;0.80;;;16.30;99.90;;;;;;4148161;28;20057;-48
2022/07/01 06:03:59;;;;;;;0.70;0.70;;;16.40;99.90;;;;;;4148525;28;20060;-48
2022/07/01 06:06:19;;;;;;;1.10;0.70;;;16.70;99.90;;;;;;4154239;28;20139;-46
2022/07/01 06:08:40;;;;;;;3.33;0.80;;;16.70;99.90;;;;;;4154693;28;20065;-48
2022/07/01 06:11:01;;;;;;;2.00;0.60;;;16.70;99.90;;;;;;4151588;28;20088;-49
2022/07/01 06:13:22;;;;;;;0.75;0.70;;;16.90;99.90;;;;;;4148221;28;20586;-46
2022/07/01 06:15:43;;;;;;;2.13;0.77;;;17.00;99.90;;;;;;4153274;28;20052;-48
2022/07/01 06:18:04;;;;;;;0.70;0.70;;;17.20;99.90;;;;;;4157381;28;20076;-45
2022/07/01 06:20:25;;;;;;;2.50;0.60;;;17.40;99.90;;;;;;4154986;28;20481;-50
2022/07/01 06:22:46;;;;;;;5.80;0.65;;;17.80;99.90;;;;;;4147656;28;20112;-46
2022/07/01 06:25:07;;;;;;;3.30;0.60;;;18.10;99.90;;;;;;4147844;28;20054;-48
2022/07/01 06:27:28;;;;;;;0.70;0.70;;;18.00;99.90;;;;;;4147658;28;20389;-49
2022/07/01 06:29:49;;;;;;;0.60;0.60;;;18.20;99.90;;;;;;4149409;28;20137;-49
2022/07/01 06:32:10;;;;;;;2.67;0.80;;;18.50;99.90;;;;;;4147705;28;20133;-45
2022/07/01 06:34:31;;;;;;;0.60;0.60;;;18.50;99.90;;;;;;4147689;28;20141;-47
2022/07/01 06:36:51;;;;;;;6.25;1.23;;;18.70;99.90;;;;;;4147426;28;20049;-48
2022/07/01 06:39:12;;;;;;;0.70;0.57;;;18.90;99.90;;;;;;4147527;28;20044;-48
2022/07/01 06:41:33;;;;;;;0.60;0.60;;;19.00;99.90;;;;;;4147832;28;20057;-47
2022/07/01 06:43:54;;;;;;;3.38;0.68;;;19.20;99.90;;;;;;4155963;28;20147;-47
2022/07/01 06:46:16;;;;;;;2.40;0.47;;;19.70;99.90;;;;;;4153065;28;20048;-46
2022/07/01 06:48:37;;;;;;;1.00;0.50;;;19.90;99.90;;;;;;4147427;28;20139;-46
2022/07/01 06:50:57;;;;;;;3.80;0.50;;;20.10;99.90;;;;;;4162774;28;20064;-47
2022/07/01 06:53:18;;;;;;;1.10;0.50;;;20.40;99.90;;;;;;4147506;28;20121;-47
2022/07/01 06:55:39;;;;;;;0.90;0.82;;;20.40;99.90;;;;;;4147348;28;20125;-49
2022/07/01 06:58:00;;;;;;;0.57;0.50;;;20.50;99.90;;;;;;4147089;28;20532;-47
2022/07/01 07:00:21;;;;;;;0.50;0.50;;;20.60;99.80;;;;;;4147483;28;20049;-48
2022/07/01 07:02:41;;;;;;;0.50;0.50;;;20.60;98.70;;;;;;4147407;28;20073;-48
2022/07/01 07:05:02;;;;;;;3.50;0.50;;;20.60;99.10;;;;;;4147026;28;20137;-48
2022/07/01 07:07:24;;;;;;;1.38;0.40;;;20.70;98.80;;;;;;4147248;28;20057;-47
2022/07/01 07:09:45;;;;;;;1.40;0.40;;;21.00;98.00;;;;;;4146927;28;20096;-46
2022/07/01 07:12:06;;;;;;;0.50;0.50;;;21.20;98.10;;;;;;4158801;28;20052;-46
2022/07/01 07:14:26;;;;;;;0.50;0.50;;;21.50;97.40;;;;;;4156527;28;20048;-47
2022/07/01 07:16:47;;;;;;;2.75;0.43;;;21.90;97.00;;;;;;4147462;28;20123;-47
2022/07/01 07:19:09;;;;;;;0.40;0.40;;;22.10;97.20;;;;;;4146869;28;20104;-49
2022/07/01 07:21:30;;;;;;;3.40;0.50;;;22.20;96.50;;;;;;4147392;28;20136;-48
2022/07/01 07:23:51;;;;;;;2.10;0.40;;;22.30;96.30;;;;;;4146798;28;20125;-47
2022/07/01 07:26:12;;;;;;;2.28;0.40;;;22.40;95.00;;;;;;4156954;28;20088;-45
2022/07/01 07:28:33;;;;;;;0.60;0.50;;;22.50;94.80;;;;;;4146952;28;20049;-45
2022/07/01 07:30:54;;;;;;;0.57;0.55;;;22.70;95.30;;;;;;4146771;28;20543;-46
2022/07/01 07:33:15;;;;;;;1.33;0.40;;;22.90;95.10;;;;;;4146569;28;20124;-46
2022/07/01 07:35:35;;;;;;;1.27;0.65;;;23.10;96.50;;;;;;4146845;28;20157;-45
2022/07/01 07:37:56;;;;;;;2.38;0.40;;;23.40;95.20;;;;;;4146784;28;20048;-46
2022/07/01 07:40:20;;;;;;;0.30;0.30;;;24.10;95.00;;;;;;4146763;28;20049;-45
2022/07/01 07:42:41;;;;;;;1.60;0.40;;;23.90;93.50;;;;;;4146735;28;20049;-47
2022/07/01 07:45:03;;;;;;;0.90;0.40;;;23.80;94.10;;;;;;4146734;28;20060;-48
2022/07/01 07:47:24;;;;;;;0.95;0.50;;;24.00;93.70;;;;;;4146532;28;20619;-47
2022/07/01 07:49:45;;;;;;;1.95;0.40;;;24.10;93.50;;;;;;4152067;28;20722;-47
2022/07/01 07:52:06;;;;;;;1.27;0.40;;;24.60;94.50;;;;;;4161329;28;20060;-48
2022/07/01 07:54:26;;;;;;;0.57;0.40;;;25.30;94.00;;;;;;4146496;28;20056;-48
2022/07/01 07:56:47;;;;;;;0.40;0.40;;;25.40;93.40;;;;;;4146623;28;20103;-47
2022/07/01 07:59:08;;;;;;;1.30;0.40;;;25.20;93.10;;;;;;4146453;28;20064;-46
2022/07/01 08:01:28;;;;;;;0.40;0.40;;;25.30;93.80;;;;;;4146367;28;20108;-48
2022/07/01 08:03:50;;;;;;;1.05;0.65;;;25.60;94.80;;;;;;4146716;28;20084;-47
2022/07/01 08:06:12;;;;;;;1.13;0.30;;;25.70;91.60;;;;;;4146600;28;20566;-47
2022/07/01 08:08:33;;;;;;;0.90;0.40;;;25.60;92.30;;;;;;4154192;28;20096;-47
2022/07/01 08:10:53;;;;;;;2.47;0.40;;;26.10;91.50;;;;;;4148789;28;20052;-45
2022/07/01 08:13:14;;;;;;;1.58;0.30;;;26.60;91.60;;;;;;4146609;28;20551;-48
2022/07/01 08:15:35;;;;;;;0.50;0.40;;;26.90;91.20;;;;;;4153986;28;20068;-46
2022/07/01 08:17:56;;;;;;;0.30;0.30;;;26.90;91.00;;;;;;4151394;28;20121;-47
2022/07/01 08:20:18;;;;;;;0.50;0.38;;;26.90;89.50;;;;;;4146303;28;20080;-46
2022/07/01 08:22:43;;;;;;;0.52;0.52;;;26.90;90.50;;;;;;4161230;28;20466;-45
2022/07/01 08:25:04;;;;;;;0.30;0.30;;;27.10;91.10;;;;;;4155702;28;20642;-48
2022/07/01 08:27:25;;;;;;;1.23;0.40;;;27.00;91.10;;;;;;4149742;28;20048;-47
2022/07/01 08:29:45;;;;;;;2.65;0.40;;;27.30;92.30;;;;;;4149550;28;20564;-46
2022/07/01 08:32:07;;;;;;;1.38;0.40;;;27.70;90.40;;;;;;4149632;28;20049;-48
2022/07/01 08:34:28;;;;;;;1.70;0.30;;;28.00;90.80;;;;;;4149404;28;20104;-48
2022/07/01 08:36:48;;;;;;;0.80;0.30;;;27.80;90.20;;;;;;4149421;28;20608;-47
2022/07/01 08:39:09;;;;;;;0.63;0.30;;;27.60;90.80;;;;;;4149646;28;20057;-46
2022/07/01 08:41:30;;;;;;;1.75;0.40;;;27.80;89.50;;;;;;4149389;28;20060;-46
2022/07/01 08:43:50;;;;;;;4.57;0.38;;;27.90;90.60;;;;;;4150860;28;20061;-47
2022/07/01 08:46:12;;;;;;;1.35;0.30;;;28.20;90.40;;;;;;4149179;28;20060;-46
2022/07/01 08:48:34;;;;;;;0.32;0.32;;;28.50;90.00;;;;;;4149759;28;20052;-49
2022/07/01 08:50:55;;;;;;;0.65;0.40;;;28.30;91.50;;;;;;4151137;28;20107;-48
2022/07/01 08:53:15;;;;;;;0.30;0.30;;;28.70;89.10;;;;;;4149093;28;20088;-47
2022/07/01 08:56:40;;;;;;;0.60;0.40;;;28.70;90.20;;;;;;4149615;28;20402;-48
2022/07/01 08:58:17;;;;;;;3.13;0.50;;;28.70;85.80;;;;;;4149063;28;20048;-48
2022/07/01 09:00:38;;;;;;;3.92;0.40;;;28.60;87.70;;;;;;4149097;28;20137;-48
2022/07/01 09:03:01;;;;;;;2.20;0.28;;;28.70;86.30;;;;;;4149074;28;20060;-48
2022/07/01 09:05:24;;;;;;;1.50;0.30;;;29.10;87.70;;;;;;4149163;28;20052;-48
2022/07/01 09:07:46;;;;;;;1.88;0.30;;;29.10;86.60;;;;;;4156082;28;20056;-49
2022/07/01 09:10:21;;;;;;;1.85;0.57;;;29.50;90.30;;;;;;4151036;28;20137;-46
2022/07/01 09:12:42;;;;;;;0.40;0.40;;;28.90;86.50;;;;;;4148933;28;20049;-47
2022/07/01 09:15:25;;;;;;;2.20;0.30;;;29.00;83.90;;;;;;4148890;28;20089;-49
2022/07/01 09:17:46;;;;;;;1.20;0.30;;;29.40;82.70;;;;;;4156720;28;20145;-47
2022/07/01 09:20:07;;;;;;;0.90;0.88;;;29.60;82.10;;;;;;4148589;28;20083;-47
2022/07/01 09:22:27;;;;;;;0.85;0.32;;;29.90;83.80;;;;;;4148753;28;20049;-49
2022/07/01 09:24:51;;;;;;;4.88;0.30;;;29.60;85.10;;;;;;4147543;28;20052;-48
2022/07/01 09:27:13;;;;;;;0.20;0.20;;;29.60;83.50;;;;;;4148908;28;20056;-48
2022/07/01 09:29:39;;;;;;;0.30;0.20;;;29.10;77.00;;;;;;4148642;28;20455;-46
2022/07/01 09:32:02;;;;;;;0.28;0.20;;;29.40;81.90;;;;;;4148493;28;20072;-47
2022/07/01 09:34:23;;;;;;;0.30;0.30;;;29.40;79.80;;;;;;4147954;28;20088;-48
2022/07/01 09:36:52;;;;;;;0.30;0.20;;;29.60;79.70;;;;;;4148464;28;20488;-46
2022/07/01 09:39:13;;;;;;;0.28;0.28;;;29.30;81.10;;;;;;4148532;28;20057;-46
2022/07/01 09:41:57;;;;;;;0.28;0.28;;;29.20;81.30;;;;;;4148519;28;20140;-46
2022/07/01 09:44:18;;;;;;;0.35;0.30;;;29.50;83.00;;;;;;4155127;28;20040;-49
2022/07/01 09:46:55;;;;;;;1.10;0.30;;;29.30;80.50;;;;;;4148807;28;20048;-47
2022/07/01 09:49:16;;;;;;;0.30;0.30;;;29.10;81.20;;;;;;4150159;28;20125;-49
2022/07/01 09:51:37;;;;;;;1.25;0.28;;;29.30;80.20;;;;;;4150671;28;20077;-47
2022/07/01 09:53:58;;;;;;;0.50;0.25;;;29.40;80.60;;;;;;4148368;28;20103;-49
2022/07/01 09:56:20;;;;;;;0.35;0.30;;;29.60;77.60;;;;;;4148268;28;20085;-48
2022/07/01 09:58:42;;;;;;;0.30;0.30;;;29.30;77.40;;;;;;4148252;28;20108;-46
2022/07/01 10:01:04;;;;;;;1.65;0.30;;;29.20;77.10;;;;;;4148062;28;20053;-49
2022/07/01 10:03:26;;;;;;;1.67;0.20;;;29.20;76.70;;;;;;4148088;28;20064;-47
2022/07/01 10:05:54;;;;;;;2.88;0.63;;;29.20;75.80;;;;;;4148185;28;20126;-47
2022/07/01 10:08:36;;;;;;;0.30;0.30;;;29.40;76.00;;;;;;4158447;28;20137;-46
2022/07/01 10:11:06;;;;;;;0.88;0.55;;;29.90;75.20;;;;;;4159793;28;20052;-46
2022/07/01 10:13:31;;;;;;;0.40;0.30;;;30.00;69.50;;;;;;4153321;28;20048;-47
2022/07/01 10:15:54;;;;;;;0.40;0.20;;;30.10;68.00;;;;;;4151143;28;20053;-47
2022/07/01 10:18:26;;;;;;;0.98;0.50;;;30.40;67.80;;;;;;4150927;28;20048;-46
2022/07/01 10:20:48;;;;;;;1.63;0.20;;;30.50;67.50;;;;;;4147673;28;20065;-47
2022/07/01 10:23:08;;;;;;;0.52;0.20;;;30.20;66.90;;;;;;4147971;28;20060;-48
2022/07/01 10:25:34;;;;;;;0.20;0.20;;;30.20;64.70;;;;;;4147800;28;20052;-49
2022/07/01 10:28:14;;;;;;;0.20;0.20;;;30.20;65.20;;;;;;4147796;28;20057;-47
2022/07/01 10:30:35;;;;;;;0.50;0.20;;;30.50;66.80;;;;;;4163144;28;20099;-47
2022/07/01 10:32:59;;;;;;;0.20;0.20;;;30.50;65.50;;;;;;4151320;28;20141;-47
2022/07/01 10:35:25;;;;;;;2.58;0.20;;;30.60;66.60;;;;;;4156736;28;20618;-46
2022/07/01 10:38:01;;;;;;;1.35;0.20;;;30.40;66.90;;;;;;4147642;28;20706;-46
2022/07/01 10:40:47;;;;;;;0.95;0.20;;;30.70;69.10;;;;;;4159775;28;20053;-49
2022/07/01 10:43:08;;;;;;;1.23;0.28;;;30.70;68.60;;;;;;4152413;28;20290;-46
2022/07/01 10:45:47;;;;;;;0.90;0.20;;;30.50;67.40;;;;;;4156399;28;20056;-46
2022/07/01 10:48:22;;;;;;;1.13;0.20;;;30.50;68.20;;;;;;4157255;28;20077;-46
2022/07/01 10:50:46;;;;;;;0.40;0.20;;;30.30;67.30;;;;;;4159032;28;20091;-46
2022/07/01 10:53:07;;;;;;;2.05;0.20;;;30.40;67.10;;;;;;4147241;28;20131;-49
2022/07/01 10:55:52;;;;;;;0.20;0.20;;;30.50;70.60;;;;;;4147185;28;20141;-50
2022/07/01 10:58:20;;;;;;;4.05;0.20;;;30.50;70.70;;;;;;4146001;28;20398;-47
2022/07/01 11:00:46;;;;;;;0.70;0.20;;;30.80;68.40;;;;;;4147322;28;20516;-47
2022/07/01 11:03:09;;;;;;;0.35;0.20;;;30.50;71.00;;;;;;4159920;28;20048;-47
2022/07/01 11:05:31;;;;;;;2.05;0.22;;;30.60;69.90;;;;;;4162151;28;20064;-47
2022/07/01 11:07:55;;;;;;;5.68;0.30;;;30.40;71.20;;;;;;4156491;28;20416;-46
2022/07/01 11:10:18;;;;;;;0.70;0.25;;;30.50;69.90;;;;;;4150395;28;20052;-47
2022/07/01 11:12:40;;;;;;;0.20;0.20;;;30.30;70.40;;;;;;4147117;28;20049;-49
2022/07/01 11:15:06;;;;;;;2.35;0.20;;;30.30;67.10;;;;;;4147227;28;20121;-47
2022/07/01 11:17:28;;;;;;;0.75;0.20;;;30.20;71.20;;;;;;4150030;28;20428;-49
2022/07/01 11:19:50;;;;;;;5.05;0.28;;;30.30;72.10;;;;;;4157636;28;20130;-47
2022/07/01 11:22:11;;;;;;;;;;;30.60;70.80;;;;;;4146726;28;20056;-46
2022/07/01 11:24:31;;;;;;;1.55;0.20;;;30.40;69.80;;;;;;4146609;28;19937;-47
2022/07/01 11:27:00;;;;;;;0.17;0.17;;;30.70;71.00;;;;;;4146654;28;20053;-46
2022/07/01 11:29:28;;;;;;;0.30;0.30;;;30.70;70.80;;;;;;4146334;28;20157;-47
2022/07/01 11:31:49;;;;;;;0.55;0.30;;;30.70;70.30;;;;;;4146350;28;20053;-46
2022/07/01 11:34:15;;;;;;;4.60;0.30;;;30.60;68.10;;;;;;4146541;28;20108;-49
2022/07/01 11:39:21;;;;;;;0.20;0.20;;;30.60;67.40;;;;;;4154226;28;20047;-50
2022/07/01 11:41:42;;;;;;;1.35;0.20;;;31.00;65.50;;;;;;4155970;28;20049;-49
2022/07/01 11:44:07;;;;;;;1.25;0.20;;;31.10;65.50;;;;;;4148358;28;20134;-48
2022/07/01 11:46:27;;;;;;;0.20;0.20;;;30.80;62.30;;;;;;4148079;28;20096;-50
2022/07/01 11:48:51;;;;;;;2.47;0.20;;;30.90;62.80;;;;;;4145493;28;20056;-48
2022/07/01 11:51:14;;;;;;;0.80;0.20;;;31.30;65.50;;;;;;4145718;28;20100;-49
2022/07/01 11:53:35;;;;;;;1.55;0.20;;;31.70;65.30;;;;;;4145825;28;20578;-49
2022/07/01 11:55:56;;;;;;;1.93;0.30;;;31.90;66.10;;;;;;4146286;28;20129;-51
2022/07/01 11:58:17;;;;;;;1.33;0.20;;;32.00;65.10;;;;;;4146073;28;20124;-50
2022/07/01 12:00:38;;;;;;;0.55;0.20;;;32.20;63.20;;;;;;4146092;28;20100;-51
2022/07/01 12:02:59;;;;;;;0.20;0.20;;;32.20;62.60;;;;;;4146151;28;20100;-51
2022/07/01 12:05:20;;;;;;;4.65;0.50;;;32.10;64.20;;;;;;4146190;28;20524;-51
2022/07/01 12:07:41;;;;;;;0.80;0.50;;;32.30;64.90;;;;;;4152811;28;20064;-50
2022/07/01 12:10:02;;;;;;;1.85;0.20;;;32.90;62.10;;;;;;4146010;28;20099;-48
2022/07/01 12:12:25;;;;;;;1.03;0.20;;;33.00;62.40;;;;;;4160258;28;20056;-49
2022/07/01 12:14:58;;;;;;;0.43;0.20;;;32.90;61.50;;;;;;4150706;28;20109;-49
2022/07/01 12:17:19;;;;;;;0.30;0.20;;;32.60;63.50;;;;;;4153027;28;20041;-51
2022/07/01 12:19:42;;;;;;;1.85;0.20;;;32.60;63.10;;;;;;4161922;28;20563;-49
2022/07/01 12:22:08;;;;;;;1.13;0.20;;;32.30;61.40;;;;;;4146095;28;20108;-51
2022/07/01 12:24:29;;;;;;;0.73;0.20;;;32.40;62.20;;;;;;4145716;28;20097;-51
2022/07/01 12:27:05;;;;;;;0.30;0.20;;;32.80;67.10;;;;;;4145573;28;20100;-49
2022/07/01 12:29:27;;;;;;;0.35;0.20;;;33.20;66.00;;;;;;4145630;28;20057;-49
2022/07/01 12:32:15;;;;;;;1.08;0.20;;;33.80;62.50;;;;;;4145788;28;20103;-51
2022/07/01 12:34:41;;;;;;;2.35;0.22;;;34.10;63.70;;;;;;4145854;28;20104;-48
2022/07/01 12:37:02;;;;;;;0.20;0.20;;;33.60;65.30;;;;;;4145646;28;20146;-48